aviador You're here:

KEKX Decoded Metar

ELIZABETH in KY, USA
Report Time2017-08-16 19:15:00
UTC Time2017-08-16 19:30:46
Flight Rules vfr VFR
Wind250° at 07 kt
W.Decomp.*RWY 23: 6.4 kt HW 2.7 kt RCW
W.Rank250° ranks 13
Current wind is below 250° avg. (7.3)
Visibility9999 m
Phenomena:N/A
Clouds:Scattered 034 Hf
Scattered 047 Hf
Expected CloudBase > 3,200 ft AGL from Temp-Dew spread
CeilingNone
Temp30°C (ISA +16)
Dew Point22°C (62% RH)
Heat Index33.2°C
QNH1017 hPa
Density Alt2,861 ft
Elevation755 ft
Report Wrong Elevation
Raw Report
METAR KEKX 161915Z AUTO 25007KT 10SM SCT034 SCT047 30/22 A3002 RMK
AO2 T03040218=

Extra information for KEKX:More info

Airport Information Weather charts Add Link Nearby Venues Social comments

AIRNAV info for KEKX